Time;durP1;ratioP1;P1;durP2;ratioP2;P2;SDS_P1;SDS_P2;PMS_P1;PMS_P2;Temp;Humidity;BMP_temperature;BMP_pressure;BME280_temperature;BME280_humidity;BME280_pressure;Samples;Min_cycle;Max_cycle;Signal;HPM_P1;HPM_P2
2022/05/09 00:01:42;;;;;;;0.27;0.27;;;20.80;61.80;;;;;;5062147;28;20059;-41
2022/05/09 00:04:29;;;;;;;0.30;0.30;;;20.80;61.80;;;;;;5062073;28;20285;-41
2022/05/09 00:06:55;;;;;;;0.32;0.30;;;20.90;61.80;;;;;;5007749;28;20049;-40
2022/05/09 00:09:21;;;;;;;0.38;0.38;;;20.80;61.60;;;;;;5022340;28;20088;-42
2022/05/09 00:11:48;;;;;;;0.63;0.30;;;20.90;61.60;;;;;;5022038;28;20502;-41
2022/05/09 00:14:14;;;;;;;0.30;0.30;;;20.80;61.40;;;;;;5022069;28;20069;-41
2022/05/09 00:16:40;;;;;;;0.30;0.30;;;20.80;61.30;;;;;;5022084;28;20034;-42
2022/05/09 00:19:07;;;;;;;0.28;0.28;;;20.80;61.20;;;;;;5042030;28;20103;-41
2022/05/09 00:21:35;;;;;;;0.30;0.30;;;20.80;61.10;;;;;;5028762;28;20069;-43
2022/05/09 00:24:01;;;;;;;0.40;0.40;;;20.80;61.00;;;;;;5022079;28;20040;-43
2022/05/09 00:26:31;;;;;;;0.30;0.30;;;20.90;61.00;;;;;;5021128;28;20045;-41
2022/05/09 00:29:02;;;;;;;0.25;0.25;;;20.90;60.90;;;;;;5020985;28;20716;-44
2022/05/09 00:31:29;;;;;;;0.50;0.40;;;20.90;60.70;;;;;;5022020;28;20061;-41
2022/05/09 00:33:56;;;;;;;0.50;0.30;;;20.90;60.60;;;;;;5021960;28;20030;-43
2022/05/09 00:36:22;;;;;;;0.40;0.40;;;20.90;60.50;;;;;;5021398;28;20018;-42
2022/05/09 00:38:51;;;;;;;0.45;0.35;;;20.80;60.30;;;;;;5018999;28;20613;-42
2022/05/09 00:41:37;;;;;;;0.22;0.22;;;20.90;60.40;;;;;;5005911;28;20046;-42
2022/05/09 00:44:22;;;;;;;0.63;0.30;;;20.90;60.40;;;;;;5053297;28;20033;-42
2022/05/09 00:46:51;;;;;;;0.30;0.30;;;20.90;60.30;;;;;;5085054;28;20039;-41
2022/05/09 00:49:49;;;;;;;0.30;0.30;;;20.90;60.30;;;;;;5104560;28;20036;-42
2022/05/09 00:52:30;;;;;;;0.30;0.30;;;20.90;60.30;;;;;;5085004;28;20101;-41
2022/05/09 00:55:00;;;;;;;0.30;0.30;;;20.80;60.30;;;;;;5083904;28;20036;-43
2022/05/09 00:57:33;;;;;;;0.40;0.40;;;20.80;60.30;;;;;;5075561;28;20021;-39
2022/05/09 01:00:04;;;;;;;0.35;0.30;;;20.80;60.30;;;;;;5096065;28;20417;-40
2022/05/09 01:02:30;;;;;;;0.30;0.28;;;20.80;60.40;;;;;;5079139;28;20029;-41
2022/05/09 01:04:57;;;;;;;0.40;0.30;;;20.90;60.50;;;;;;5095822;28;20051;-41
2022/05/09 01:07:24;;;;;;;0.55;0.47;;;20.90;60.50;;;;;;5105391;28;20041;-42
2022/05/09 01:09:50;;;;;;;0.50;0.50;;;20.80;60.50;;;;;;5083806;28;20403;-43
2022/05/09 01:12:29;;;;;;;0.40;0.40;;;20.80;60.40;;;;;;5083529;28;20043;-42
2022/05/09 01:15:01;;;;;;;0.30;0.30;;;20.80;60.40;;;;;;5083612;28;20055;-41
2022/05/09 01:17:27;;;;;;;0.43;0.43;;;20.80;60.30;;;;;;5088425;28;20040;-42
2022/05/09 01:19:55;;;;;;;0.60;0.50;;;20.80;60.30;;;;;;5103853;28;20037;-41
2022/05/09 01:22:41;;;;;;;;;;;20.80;60.30;;;;;;5082730;28;20032;-43
2022/05/09 01:25:10;;;;;;;0.40;0.30;;;20.80;60.30;;;;;;5083110;28;19954;-42
2022/05/09 01:27:39;;;;;;;0.50;0.30;;;20.80;60.30;;;;;;5073979;28;20656;-41
2022/05/09 01:30:20;;;;;;;0.82;0.40;;;20.80;60.30;;;;;;5081792;28;20028;-42
2022/05/09 01:32:53;;;;;;;0.60;0.30;;;20.80;60.30;;;;;;5083532;28;20029;-42
2022/05/09 01:35:23;;;;;;;0.40;0.40;;;20.80;60.30;;;;;;5083106;28;20111;-42
2022/05/09 01:38:04;;;;;;;0.30;0.30;;;20.80;60.30;;;;;;5083048;28;20809;-41
2022/05/09 01:40:30;;;;;;;0.40;0.40;;;20.80;60.30;;;;;;5083065;28;20029;-43
2022/05/09 01:42:56;;;;;;;0.77;0.30;;;20.80;60.30;;;;;;5083365;28;20051;-42
2022/05/09 01:45:22;;;;;;;0.40;0.40;;;20.80;60.20;;;;;;5082967;28;20024;-42
2022/05/09 01:50:33;;;;;;;0.30;0.30;;;20.80;60.20;;;;;;5098200;28;20086;-41
2022/05/09 01:52:59;;;;;;;0.40;0.30;;;20.80;60.10;;;;;;5083215;28;20024;-43
2022/05/09 01:55:25;;;;;;;0.40;0.40;;;20.80;60.80;;;;;;5082813;28;20024;-42
2022/05/09 01:57:51;;;;;;;0.35;0.32;;;20.80;60.10;;;;;;5071236;28;20074;-42
2022/05/09 02:00:18;;;;;;;0.40;0.40;;;20.80;60.10;;;;;;5074661;28;20029;-41
2022/05/09 02:02:44;;;;;;;0.40;0.40;;;20.80;59.90;;;;;;5083138;28;20030;-42
2022/05/09 02:05:10;;;;;;;0.50;0.50;;;20.80;59.90;;;;;;5082594;28;20025;-41
2022/05/09 02:07:37;;;;;;;0.33;0.33;;;20.80;59.90;;;;;;5082323;28;20044;-42
2022/05/09 02:10:03;;;;;;;0.43;0.40;;;20.80;59.90;;;;;;5082523;28;20047;-42
2022/05/09 02:12:32;;;;;;;0.55;0.50;;;20.80;59.90;;;;;;5082874;28;20044;-42
2022/05/09 02:14:58;;;;;;;0.65;0.40;;;20.80;59.80;;;;;;5082607;28;20677;-42
2022/05/09 02:17:24;;;;;;;0.50;0.43;;;20.70;59.70;;;;;;5084293;28;20033;-40
2022/05/09 02:19:50;;;;;;;0.40;0.40;;;20.70;59.70;;;;;;5080468;28;20028;-43
2022/05/09 02:22:16;;;;;;;0.40;0.40;;;20.70;59.60;;;;;;5075949;28;20050;-45
2022/05/09 02:24:43;;;;;;;0.40;0.40;;;20.80;59.60;;;;;;5083979;28;20032;-42
2022/05/09 02:27:10;;;;;;;0.50;0.40;;;20.70;59.60;;;;;;5085595;28;20032;-42
2022/05/09 02:29:38;;;;;;;0.60;0.50;;;20.70;59.50;;;;;;5088478;28;20063;-42
2022/05/09 02:32:05;;;;;;;0.50;0.40;;;20.70;59.50;;;;;;5085190;28;20017;-43
2022/05/09 02:34:31;;;;;;;;;;;20.70;59.50;;;;;;5089229;28;20028;-42
2022/05/09 02:36:57;;;;;;;0.50;0.50;;;20.70;59.50;;;;;;5083655;28;19908;-42
2022/05/09 02:39:23;;;;;;;0.73;0.60;;;20.70;59.40;;;;;;5089600;28;20024;-42
2022/05/09 02:41:49;;;;;;;0.40;0.40;;;20.70;59.40;;;;;;5084756;28;20041;-41
2022/05/09 02:44:15;;;;;;;0.52;0.50;;;20.70;59.50;;;;;;5091163;28;20023;-43
2022/05/09 02:46:42;;;;;;;0.95;0.40;;;20.60;59.40;;;;;;5087130;28;20032;-42
2022/05/09 02:49:11;;;;;;;0.80;0.40;;;20.60;59.30;;;;;;5084290;28;20041;-42
2022/05/09 02:51:37;;;;;;;0.30;0.30;;;20.60;59.60;;;;;;5086192;28;20762;-42
2022/05/09 02:54:04;;;;;;;0.40;0.40;;;20.70;59.90;;;;;;5088524;28;20043;-41
2022/05/09 02:56:30;;;;;;;0.40;0.40;;;20.60;59.30;;;;;;5099559;28;20024;-42
2022/05/09 02:58:56;;;;;;;0.50;0.50;;;20.60;59.20;;;;;;5077517;28;20039;-43
2022/05/09 03:01:23;;;;;;;0.40;0.40;;;20.60;59.20;;;;;;5086651;28;20139;-42
2022/05/09 03:06:33;;;;;;;1.75;0.30;;;20.60;59.40;;;;;;5092758;28;20066;-36
2022/05/09 03:08:59;;;;;;;4.40;0.50;;;20.60;59.30;;;;;;5088449;28;20139;-36
2022/05/09 03:11:25;;;;;;;1.60;0.40;;;20.60;59.30;;;;;;5081639;28;20045;-38
2022/05/09 03:13:52;;;;;;;4.57;0.77;;;20.60;59.50;;;;;;5087015;28;20045;-34
2022/05/09 03:16:19;;;;;;;0.63;0.40;;;20.60;59.90;;;;;;5076544;28;20477;-36
2022/05/09 03:18:45;;;;;;;2.47;0.43;;;20.60;60.00;;;;;;5087775;28;20040;-35
2022/05/09 03:21:11;;;;;;;7.75;1.50;;;20.50;60.10;;;;;;5081970;28;20028;-35
2022/05/09 03:23:38;;;;;;;4.68;1.27;;;20.50;60.50;;;;;;5085923;28;20040;-36
2022/05/09 03:26:04;;;;;;;6.93;0.88;;;20.50;61.20;;;;;;5090740;28;20102;-46
2022/05/09 03:28:30;;;;;;;7.88;1.20;;;20.50;61.50;;;;;;5085056;28;20054;-47
2022/05/09 03:30:57;;;;;;;4.25;0.98;;;20.60;62.30;;;;;;5080445;28;20028;-48
2022/05/09 03:33:26;;;;;;;6.80;0.80;;;20.60;65.00;;;;;;5082212;28;20068;-46
2022/05/09 03:35:53;;;;;;;5.88;1.42;;;20.60;63.30;;;;;;5083833;28;20033;-50
2022/05/09 03:38:20;;;;;;;5.95;1.17;;;20.60;64.30;;;;;;5079193;28;20039;-49
2022/05/09 03:40:46;;;;;;;10.63;1.13;;;20.70;63.80;;;;;;5088593;28;20054;-50
2022/05/09 03:43:12;;;;;;;4.55;1.13;;;20.60;64.50;;;;;;5082776;28;20040;-49
2022/05/09 03:45:42;;;;;;;7.60;1.10;;;20.60;63.80;;;;;;5081889;28;20029;-48
2022/05/09 03:48:09;;;;;;;6.13;1.30;;;20.60;63.80;;;;;;5088449;28;20044;-46
2022/05/09 03:50:35;;;;;;;11.73;0.95;;;20.70;63.60;;;;;;5075944;28;20049;-55
2022/05/09 03:53:01;;;;;;;7.78;1.27;;;20.70;64.00;;;;;;5076510;28;20060;-46
2022/05/09 03:55:28;;;;;;;5.00;1.38;;;20.70;63.90;;;;;;5080355;28;20206;-47
2022/05/09 03:57:55;;;;;;;3.72;0.80;;;20.70;63.90;;;;;;5086999;28;20059;-48
2022/05/09 04:00:24;;;;;;;7.78;1.00;;;20.70;63.90;;;;;;5084165;28;20059;-47
2022/05/09 04:02:50;;;;;;;6.05;1.10;;;20.70;63.80;;;;;;5084488;28;20033;-51
2022/05/09 04:05:17;;;;;;;3.08;0.90;;;20.70;64.40;;;;;;5083770;28;20020;-44
2022/05/09 04:07:44;;;;;;;2.85;0.82;;;20.80;64.40;;;;;;5082055;28;20036;-36
2022/05/09 04:10:12;;;;;;;7.40;1.05;;;20.80;63.40;;;;;;5082086;28;20074;-36
2022/05/09 04:12:40;;;;;;;4.75;1.20;;;20.80;63.40;;;;;;5089035;28;20119;-36
2022/05/09 04:17:51;;;;;;;3.75;0.82;;;20.80;63.00;;;;;;5088805;28;19919;-36
2022/05/09 04:20:17;;;;;;;3.78;0.90;;;20.80;62.90;;;;;;5086820;28;20024;-37
2022/05/09 04:22:43;;;;;;;4.68;0.88;;;20.80;62.80;;;;;;5087654;28;20100;-37
2022/05/09 04:25:09;;;;;;;2.97;1.10;;;20.80;62.60;;;;;;5088490;28;20389;-37
2022/05/09 04:27:36;;;;;;;2.63;0.90;;;20.80;62.60;;;;;;5084098;28;20037;-37
2022/05/09 04:30:02;;;;;;;4.28;0.68;;;20.80;62.50;;;;;;5082074;28;20051;-36
2022/05/09 04:32:28;;;;;;;2.55;0.90;;;20.80;62.40;;;;;;5077515;28;20032;-36
2022/05/09 04:34:54;;;;;;;3.40;0.70;;;20.80;62.30;;;;;;5090234;28;20039;-37
2022/05/09 04:37:21;;;;;;;4.47;0.93;;;20.80;62.20;;;;;;5081664;28;20049;-37
2022/05/09 04:39:48;;;;;;;2.78;0.90;;;20.80;62.20;;;;;;5086675;28;20087;-37
2022/05/09 04:42:14;;;;;;;1.85;0.85;;;20.80;62.10;;;;;;5081494;28;20052;-37
2022/05/09 04:44:40;;;;;;;3.30;0.70;;;20.80;62.10;;;;;;5083442;28;20064;-36
2022/05/09 04:47:07;;;;;;;2.45;0.90;;;20.80;62.00;;;;;;5083003;28;20025;-37
2022/05/09 04:49:33;;;;;;;2.08;0.80;;;20.80;61.90;;;;;;5076704;28;20037;-35
2022/05/09 04:52:00;;;;;;;2.83;0.80;;;20.80;62.10;;;;;;5078851;28;20047;-36
2022/05/09 04:54:26;;;;;;;3.35;0.75;;;20.80;62.10;;;;;;5080054;28;20024;-36
2022/05/09 04:56:52;;;;;;;2.08;0.63;;;20.80;62.10;;;;;;5081762;28;20035;-36
2022/05/09 04:59:18;;;;;;;5.28;0.63;;;20.80;62.10;;;;;;5075904;28;20029;-35
2022/05/09 05:01:44;;;;;;;3.55;0.70;;;20.80;62.00;;;;;;5089033;28;20039;-36
2022/05/09 05:04:10;;;;;;;1.60;0.60;;;20.80;62.00;;;;;;5081790;28;20030;-34
2022/05/09 05:06:36;;;;;;;1.63;0.77;;;20.80;62.00;;;;;;5084585;28;20100;-34
2022/05/09 05:09:03;;;;;;;2.03;0.55;;;20.80;62.00;;;;;;5085096;28;20995;-34
2022/05/09 05:11:29;;;;;;;1.63;0.47;;;20.80;62.00;;;;;;5084865;28;20044;-34
2022/05/09 05:13:55;;;;;;;3.03;0.70;;;20.80;61.90;;;;;;5083792;28;20300;-34
2022/05/09 05:16:59;;;;;;;3.20;0.85;;;20.80;61.90;;;;;;5089022;28;20375;-34
2022/05/09 05:19:07;;;;;;;2.25;0.63;;;20.80;61.90;;;;;;5089477;28;20135;-35
2022/05/09 05:21:33;;;;;;;1.02;0.60;;;20.80;62.00;;;;;;5089568;28;20055;-35
2022/05/09 05:24:00;;;;;;;1.20;0.65;;;20.80;61.90;;;;;;5084181;28;20691;-35
2022/05/09 05:26:26;;;;;;;1.67;0.60;;;20.80;61.90;;;;;;5084844;28;20028;-35
2022/05/09 05:28:52;;;;;;;1.50;0.70;;;20.80;61.90;;;;;;5081590;28;20052;-34
2022/05/09 05:31:18;;;;;;;1.67;0.65;;;20.80;61.90;;;;;;5085765;28;20032;-35
2022/05/09 05:33:45;;;;;;;3.13;0.80;;;20.80;61.90;;;;;;5087589;28;20032;-35
2022/05/09 05:36:12;;;;;;;1.57;0.80;;;20.80;61.90;;;;;;5082841;28;20035;-35
2022/05/09 05:38:39;;;;;;;1.67;0.43;;;20.80;61.80;;;;;;5085662;28;20036;-35
2022/05/09 05:41:05;;;;;;;1.77;0.43;;;20.80;61.80;;;;;;5085954;28;20033;-35
2022/05/09 05:43:31;;;;;;;3.33;0.70;;;20.80;61.90;;;;;;5084492;28;20035;-35
2022/05/09 05:45:57;;;;;;;2.00;0.80;;;20.80;61.90;;;;;;5091549;28;20131;-35
2022/05/09 05:48:24;;;;;;;3.00;0.60;;;20.80;62.00;;;;;;5085223;28;20088;-35
2022/05/09 05:50:52;;;;;;;1.55;0.57;;;20.80;61.90;;;;;;5081659;28;20180;-36
2022/05/09 05:53:19;;;;;;;2.35;0.60;;;20.80;62.00;;;;;;5088107;28;20039;-34
2022/05/09 05:55:45;;;;;;;1.42;0.63;;;20.80;61.90;;;;;;5090836;28;20036;-36
2022/05/09 05:58:11;;;;;;;2.22;0.63;;;20.80;61.90;;;;;;5079559;28;20092;-36
2022/05/09 06:00:37;;;;;;;2.08;0.60;;;20.80;61.90;;;;;;5085511;28;20036;-36
2022/05/09 06:03:04;;;;;;;0.50;0.32;;;20.70;62.00;;;;;;5084354;28;20033;-36
2022/05/09 06:05:30;;;;;;;0.60;0.37;;;20.70;64.90;;;;;;5081811;28;20092;-36
2022/05/09 06:07:56;;;;;;;0.57;0.32;;;20.70;66.50;;;;;;5079805;28;20098;-36
2022/05/09 06:10:23;;;;;;;1.50;0.52;;;20.70;67.60;;;;;;5076235;28;20048;-36
2022/05/09 06:12:49;;;;;;;0.57;0.32;;;20.70;68.10;;;;;;5079477;28;20036;-36
2022/05/09 06:15:25;;;;;;;0.50;0.22;;;20.80;68.30;;;;;;5078158;28;20059;-36
2022/05/09 06:17:52;;;;;;;0.47;0.22;;;20.80;68.40;;;;;;5082784;28;20028;-36
2022/05/09 06:20:18;;;;;;;0.43;0.20;;;20.90;68.40;;;;;;5082190;28;20047;-36
2022/05/09 06:22:45;;;;;;;0.30;0.30;;;20.90;68.50;;;;;;5078289;28;20029;-36
2022/05/09 06:25:16;;;;;;;1.40;0.30;;;21.00;68.70;;;;;;5081867;28;20027;-36
2022/05/09 06:27:42;;;;;;;3.33;0.20;;;21.00;68.70;;;;;;5088609;28;20070;-36
2022/05/09 06:30:10;;;;;;;0.40;0.20;;;21.10;68.90;;;;;;5079880;28;20032;-36
2022/05/09 06:32:36;;;;;;;0.20;0.20;;;21.10;68.90;;;;;;5077283;28;20035;-36
2022/05/09 06:35:05;;;;;;;0.10;0.10;;;21.20;69.00;;;;;;5080027;28;20088;-36
2022/05/09 06:37:33;;;;;;;0.10;0.10;;;21.30;69.00;;;;;;5080667;28;20024;-36
2022/05/09 06:39:59;;;;;;;0.38;0.10;;;21.30;69.00;;;;;;5077303;28;20042;-37
2022/05/09 06:42:27;;;;;;;0.17;0.10;;;21.40;69.00;;;;;;5086456;28;20068;-37
2022/05/09 06:44:54;;;;;;;0.28;0.10;;;21.50;69.10;;;;;;5079586;28;20097;-37
2022/05/09 06:47:20;;;;;;;0.20;0.15;;;21.60;69.10;;;;;;5082938;28;20027;-37
2022/05/09 06:49:46;;;;;;;0.30;0.10;;;21.60;68.90;;;;;;5083786;28;20105;-37
2022/05/09 06:52:12;;;;;;;0.30;0.20;;;21.70;69.00;;;;;;5079998;28;20047;-38
2022/05/09 06:54:38;;;;;;;0.82;0.20;;;21.80;68.80;;;;;;5081422;28;20128;-38
2022/05/09 06:57:05;;;;;;;0.30;0.20;;;21.80;68.70;;;;;;5077064;28;20107;-38
2022/05/09 06:59:32;;;;;;;0.53;0.30;;;21.90;68.70;;;;;;5082686;28;20087;-38
2022/05/09 07:01:58;;;;;;;0.10;0.10;;;22.00;68.70;;;;;;5081278;28;20028;-38
2022/05/09 07:04:24;;;;;;;0.20;0.10;;;22.10;68.40;;;;;;5078385;28;20039;-38
2022/05/09 07:06:51;;;;;;;0.20;0.10;;;22.20;68.50;;;;;;5078607;28;20448;-38
2022/05/09 07:09:17;;;;;;;0.20;0.20;;;22.30;68.20;;;;;;5083210;28;20066;-38
2022/05/09 07:11:43;;;;;;;0.20;0.20;;;22.30;67.90;;;;;;5078755;28;20045;-38
2022/05/09 07:14:09;;;;;;;0.20;0.15;;;22.40;67.70;;;;;;5077149;28;20036;-39
2022/05/09 07:16:36;;;;;;;0.10;0.10;;;22.50;67.60;;;;;;5085830;28;20028;-37
2022/05/09 07:19:04;;;;;;;0.13;0.10;;;22.60;67.10;;;;;;5084427;28;20074;-38
2022/05/09 07:21:30;;;;;;;0.10;0.10;;;22.60;67.30;;;;;;5080026;28;20036;-38
2022/05/09 07:23:56;;;;;;;0.17;0.10;;;22.70;66.90;;;;;;5081968;28;20104;-38
2022/05/09 07:26:22;;;;;;;0.10;0.10;;;22.80;66.60;;;;;;5086411;28;20028;-38
2022/05/09 07:28:48;;;;;;;0.28;0.17;;;22.90;66.50;;;;;;5081592;28;20075;-38
2022/05/09 07:31:15;;;;;;;0.10;0.10;;;22.90;66.70;;;;;;5081099;28;20114;-38
2022/05/09 07:33:42;;;;;;;0.10;0.10;;;23.00;66.30;;;;;;5081615;28;20519;-37
2022/05/09 07:36:08;;;;;;;0.10;0.10;;;23.10;65.80;;;;;;5082148;28;20079;-38
2022/05/09 07:38:55;;;;;;;0.10;0.10;;;23.10;65.70;;;;;;5083578;28;20035;-38
2022/05/09 07:41:21;;;;;;;0.00;0.00;;;23.10;65.30;;;;;;5038113;28;20029;-39
2022/05/09 07:43:47;;;;;;;0.10;0.10;;;23.20;65.10;;;;;;5040449;28;20135;-37
2022/05/09 07:46:13;;;;;;;0.30;0.13;;;23.20;64.90;;;;;;5037056;28;20492;-38
2022/05/09 07:48:40;;;;;;;0.10;0.10;;;23.20;64.80;;;;;;5038754;28;20068;-37
2022/05/09 07:51:06;;;;;;;0.17;0.10;;;23.30;64.70;;;;;;5040170;28;20021;-39
2022/05/09 07:53:33;;;;;;;0.10;0.10;;;23.30;64.60;;;;;;5024211;28;20076;-38
2022/05/09 07:56:00;;;;;;;;;;;23.30;64.30;;;;;;5040589;28;20033;-38
2022/05/09 07:58:26;;;;;;;0.50;0.20;;;23.30;64.90;;;;;;5035708;28;19912;-39
2022/05/09 08:00:58;;;;;;;0.50;0.20;;;23.30;64.10;;;;;;5036850;28;20033;-40
2022/05/09 08:03:25;;;;;;;0.20;0.20;;;23.40;64.10;;;;;;5037570;28;20025;-38
2022/05/09 08:05:51;;;;;;;0.10;0.10;;;23.40;63.90;;;;;;5039880;28;20045;-38
2022/05/09 08:08:17;;;;;;;0.20;0.20;;;23.40;63.80;;;;;;5037427;28;20641;-39
2022/05/09 08:10:44;;;;;;;0.10;0.10;;;23.40;63.70;;;;;;5036532;28;20057;-36
2022/05/09 08:13:11;;;;;;;0.10;0.10;;;23.50;63.60;;;;;;5040175;28;20556;-39
2022/05/09 08:15:37;;;;;;;;;;;23.40;63.40;;;;;;5038890;28;20042;-36
2022/05/09 08:18:03;;;;;;;0.10;0.10;;;23.40;63.30;;;;;;5052449;28;20295;-36
2022/05/09 08:20:32;;;;;;;1.80;0.20;;;23.50;63.40;;;;;;5084675;28;20032;-36
2022/05/09 08:23:06;;;;;;;0.15;0.10;;;23.40;62.40;;;;;;5083528;28;20066;-37
2022/05/09 08:25:36;;;;;;;0.40;0.17;;;23.50;62.10;;;;;;5087496;28;20044;-36
2022/05/09 08:28:03;;;;;;;0.20;0.20;;;23.50;62.30;;;;;;5092245;28;20066;-35
2022/05/09 08:30:33;;;;;;;0.70;0.20;;;23.50;62.30;;;;;;5082911;28;20036;-37
2022/05/09 08:33:06;;;;;;;0.22;0.17;;;23.50;62.40;;;;;;5080421;28;20036;-37
2022/05/09 08:35:32;;;;;;;0.88;0.20;;;23.50;62.30;;;;;;5083103;28;20058;-36
2022/05/09 08:37:58;;;;;;;0.20;0.10;;;23.50;62.20;;;;;;5085127;28;20032;-37
2022/05/09 08:40:53;;;;;;;0.20;0.20;;;23.50;62.00;;;;;;5082406;28;20032;-37
2022/05/09 08:43:51;;;;;;;0.17;0.17;;;23.50;61.20;;;;;;5090195;28;20047;-38
2022/05/09 08:46:44;;;;;;;0.30;0.20;;;23.50;61.00;;;;;;5071440;28;20040;-37
2022/05/09 08:49:36;;;;;;;0.10;0.10;;;23.50;61.30;;;;;;5091957;28;20064;-37
2022/05/09 08:52:23;;;;;;;0.10;0.10;;;23.50;61.30;;;;;;5066546;28;20020;-38
2022/05/09 08:54:50;;;;;;;0.10;0.10;;;23.50;61.40;;;;;;5097174;28;20093;-37
2022/05/09 08:57:23;;;;;;;1.02;0.35;;;23.50;61.30;;;;;;5073746;28;20036;-37
2022/05/09 09:00:02;;;;;;;0.10;0.10;;;23.50;61.30;;;;;;5074930;28;20029;-38
2022/05/09 09:02:55;;;;;;;0.10;0.10;;;23.50;61.40;;;;;;5068117;28;20033;-38
2022/05/09 09:05:23;;;;;;;0.20;0.10;;;23.50;60.80;;;;;;5078371;28;20013;-37
2022/05/09 09:08:45;;;;;;;0.25;0.10;;;23.50;60.70;;;;;;5088009;28;20032;-37
2022/05/09 09:11:23;;;;;;;0.10;0.10;;;23.50;60.90;;;;;;5042951;28;20949;-37
2022/05/09 09:13:55;;;;;;;0.20;0.20;;;23.50;60.80;;;;;;5047177;28;20983;-37
2022/05/09 09:16:39;;;;;;;0.25;0.15;;;23.50;61.00;;;;;;5061190;28;20405;-37
2022/05/09 09:19:33;;;;;;;0.10;0.10;;;23.50;60.80;;;;;;5062617;28;20101;-37
2022/05/09 09:22:25;;;;;;;0.10;0.10;;;23.50;60.80;;;;;;5059827;28;20024;-37
2022/05/09 09:25:21;;;;;;;0.10;0.10;;;23.50;60.30;;;;;;5045973;28;20063;-37
2022/05/09 09:28:00;;;;;;;0.20;0.10;;;23.50;60.30;;;;;;5071785;28;20052;-37
2022/05/09 09:30:27;;;;;;;0.20;0.10;;;23.50;60.40;;;;;;5075534;28;20109;-37
2022/05/09 09:33:00;;;;;;;0.38;0.22;;;23.50;60.40;;;;;;5055122;28;20045;-37
2022/05/09 09:35:34;;;;;;;0.20;0.20;;;23.50;60.50;;;;;;5060117;28;20029;-37
2022/05/09 09:38:22;;;;;;;0.15;0.15;;;23.50;60.50;;;;;;5038106;28;20505;-37
2022/05/09 09:40:48;;;;;;;0.30;0.20;;;23.50;60.50;;;;;;5051546;28;20059;-37
2022/05/09 09:43:14;;;;;;;0.28;0.20;;;23.50;60.40;;;;;;5045988;28;20820;-37
2022/05/09 09:45:47;;;;;;;0.20;0.10;;;23.50;60.10;;;;;;5063700;28;20072;-37
2022/05/09 09:48:15;;;;;;;0.20;0.20;;;23.50;60.10;;;;;;5082227;28;20041;-37
2022/05/09 09:51:01;;;;;;;0.20;0.20;;;23.50;60.10;;;;;;5080897;28;20028;-37
2022/05/09 09:53:32;;;;;;;0.28;0.20;;;23.50;60.30;;;;;;5062613;28;20037;-38
2022/05/09 09:56:00;;;;;;;0.10;0.10;;;23.50;60.30;;;;;;5075045;28;20079;-38
2022/05/09 09:58:27;;;;;;;0.20;0.20;;;23.50;60.50;;;;;;5078409;28;20024;-38
2022/05/09 10:01:06;;;;;;;0.10;0.10;;;23.50;61.40;;;;;;5081732;28;20042;-38
2022/05/09 10:03:37;;;;;;;0.20;0.20;;;23.50;60.50;;;;;;5077966;28;20040;-38
2022/05/09 10:06:04;;;;;;;0.10;0.10;;;23.50;60.10;;;;;;5069215;28;20020;-38
2022/05/09 10:08:35;;;;;;;0.10;0.10;;;23.50;60.10;;;;;;5070061;28;20043;-38
2022/05/09 10:11:06;;;;;;;0.10;0.10;;;23.50;60.30;;;;;;5065729;28;20572;-39
2022/05/09 10:13:52;;;;;;;0.10;0.10;;;23.50;60.30;;;;;;5072299;28;20040;-38
2022/05/09 10:16:27;;;;;;;1.52;0.20;;;23.50;60.40;;;;;;5074539;28;20021;-38
2022/05/09 10:18:54;;;;;;;0.10;0.10;;;23.50;60.30;;;;;;5084003;28;20024;-38
2022/05/09 10:24:51;;;;;;;0.60;0.10;;;23.50;60.00;;;;;;5076666;28;20040;-36
2022/05/09 10:27:23;;;;;;;0.17;0.10;;;23.50;60.10;;;;;;5064500;28;20044;-36
2022/05/09 10:29:50;;;;;;;0.20;0.20;;;23.50;60.20;;;;;;5077266;28;20027;-36
2022/05/09 10:32:21;;;;;;;;;;;23.50;59.80;;;;;;5077391;28;20679;-35
2022/05/09 10:34:57;;;;;;;3.58;0.17;;;23.50;59.70;;;;;;5065105;28;19955;-35
2022/05/09 10:37:42;;;;;;;0.52;0.15;;;23.50;59.80;;;;;;5074684;28;20032;-35
2022/05/09 10:40:13;;;;;;;2.28;0.20;;;23.50;59.90;;;;;;5081003;28;20028;-39
2022/05/09 10:42:42;;;;;;;1.05;0.20;;;23.50;59.80;;;;;;5083490;28;20472;-40
2022/05/09 10:45:21;;;;;;;0.30;0.30;;;23.50;59.90;;;;;;5085171;28;20055;-39
2022/05/09 10:48:16;;;;;;;1.00;0.20;;;23.50;59.90;;;;;;5078207;28;20045;-35
2022/05/09 10:50:55;;;;;;;1.27;0.22;;;23.50;59.80;;;;;;5073124;28;20040;-37
2022/05/09 10:53:40;;;;;;;0.95;0.20;;;23.50;59.60;;;;;;5085837;28;20028;-36
2022/05/09 10:56:44;;;;;;;0.55;0.10;;;23.50;59.60;;;;;;5084410;28;20033;-36
2022/05/09 10:59:16;;;;;;;0.20;0.20;;;23.50;59.50;;;;;;5085234;28;20041;-37
2022/05/09 11:02:02;;;;;;;1.55;0.20;;;23.50;59.20;;;;;;5067229;28;20477;-37
2022/05/09 11:04:32;;;;;;;0.20;0.20;;;23.50;59.50;;;;;;5086464;28;20024;-37
2022/05/09 11:07:02;;;;;;;0.15;0.10;;;23.50;59.50;;;;;;5080704;28;20043;-37
2022/05/09 11:10:02;;;;;;;0.20;0.20;;;23.50;59.30;;;;;;5087347;28;20036;-39
2022/05/09 11:12:37;;;;;;;1.85;0.10;;;23.50;59.20;;;;;;5088655;28;20040;-37
2022/05/09 11:15:19;;;;;;;0.20;0.13;;;23.50;59.10;;;;;;5086997;28;20036;-38
2022/05/09 11:17:51;;;;;;;0.38;0.20;;;23.50;59.10;;;;;;5087683;28;20032;-37
2022/05/09 11:20:32;;;;;;;0.20;0.10;;;23.40;58.80;;;;;;5088377;28;20040;-36
2022/05/09 11:23:33;;;;;;;0.20;0.20;;;23.50;59.30;;;;;;5089836;28;20040;-33
2022/05/09 11:26:25;;;;;;;1.25;0.10;;;23.40;59.30;;;;;;5088305;28;20028;-33
2022/05/09 11:29:04;;;;;;;0.28;0.15;;;23.50;59.30;;;;;;5084869;28;20047;-42
2022/05/09 11:31:54;;;;;;;0.20;0.10;;;23.40;59.20;;;;;;5087290;28;20427;-32
2022/05/09 11:34:29;;;;;;;0.20;0.20;;;23.40;59.30;;;;;;5085772;28;20036;-33
2022/05/09 11:37:25;;;;;;;2.45;0.32;;;23.30;59.40;;;;;;5083341;28;20032;-33
2022/05/09 11:40:03;;;;;;;3.97;0.60;;;23.30;59.40;;;;;;5079344;28;20028;-33
2022/05/09 11:45:53;;;;;;;2.83;0.70;;;23.30;59.90;;;;;;5080504;28;20044;-32
2022/05/09 11:48:30;;;;;;;2.78;0.40;;;23.30;59.90;;;;;;5082784;28;20044;-33
2022/05/09 11:51:03;;;;;;;3.80;0.77;;;23.30;60.70;;;;;;5083555;28;20028;-43
2022/05/09 11:53:32;;;;;;;2.67;0.40;;;23.30;61.40;;;;;;5085710;28;20024;-43
2022/05/09 11:56:05;;;;;;;2.67;0.40;;;23.30;63.00;;;;;;5068270;28;20012;-44
2022/05/09 11:58:37;;;;;;;6.55;1.20;;;23.30;62.60;;;;;;5084595;28;20044;-42
2022/05/09 12:01:03;;;;;;;2.08;0.70;;;23.30;62.60;;;;;;5084894;28;20021;-43
2022/05/09 12:03:42;;;;;;;2.60;0.88;;;23.30;62.60;;;;;;5075142;28;20028;-43
2022/05/09 12:06:12;;;;;;;5.30;0.98;;;23.30;62.40;;;;;;5076933;28;20032;-44
2022/05/09 12:08:46;;;;;;;4.00;1.00;;;23.40;62.50;;;;;;5084913;28;20041;-45
2022/05/09 12:11:18;;;;;;;3.97;1.30;;;23.40;62.70;;;;;;5080267;28;20746;-44
2022/05/09 12:13:44;;;;;;;8.70;1.10;;;23.40;62.70;;;;;;5088551;28;20055;-42
2022/05/09 12:16:10;;;;;;;5.95;1.10;;;23.40;62.90;;;;;;5086119;28;20054;-35
2022/05/09 12:18:56;;;;;;;3.63;0.80;;;23.40;62.90;;;;;;5085132;28;20021;-34
2022/05/09 12:21:24;;;;;;;3.17;0.80;;;23.40;61.40;;;;;;5083230;28;20057;-35
2022/05/09 12:23:53;;;;;;;1.63;0.60;;;23.40;60.80;;;;;;5087915;28;20020;-35
2022/05/09 12:26:33;;;;;;;1.67;0.40;;;23.40;60.80;;;;;;5089148;28;20036;-34
2022/05/09 12:29:23;;;;;;;2.47;0.52;;;23.40;60.60;;;;;;5086783;28;20040;-34
2022/05/09 12:31:51;;;;;;;1.25;0.55;;;23.40;60.30;;;;;;5090634;28;20093;-34
2022/05/09 12:34:21;;;;;;;1.45;0.55;;;23.40;60.00;;;;;;5083485;28;20060;-34
2022/05/09 12:36:48;;;;;;;1.85;0.40;;;23.40;59.80;;;;;;5090382;28;20025;-34
2022/05/09 12:39:24;;;;;;;0.63;0.30;;;23.40;59.70;;;;;;5092925;28;20040;-34
2022/05/09 12:41:53;;;;;;;2.00;0.30;;;23.40;60.20;;;;;;5086726;28;20522;-34
2022/05/09 12:44:39;;;;;;;1.38;0.30;;;23.40;59.50;;;;;;5089266;28;20056;-34
2022/05/09 12:47:10;;;;;;;1.02;0.40;;;23.40;59.40;;;;;;5085958;28;20056;-34
2022/05/09 12:49:40;;;;;;;0.85;0.30;;;23.40;59.30;;;;;;5082449;28;20040;-35
2022/05/09 12:52:07;;;;;;;0.40;0.30;;;23.40;59.20;;;;;;5090723;28;20545;-35
2022/05/09 12:54:35;;;;;;;1.33;0.38;;;23.40;59.10;;;;;;5086503;28;20020;-34
2022/05/09 12:57:03;;;;;;;0.70;0.30;;;23.40;59.00;;;;;;5084400;28;20029;-35
2022/05/09 12:59:45;;;;;;;0.47;0.20;;;23.40;59.00;;;;;;5089559;28;20083;-35
2022/05/09 13:02:20;;;;;;;0.40;0.20;;;23.40;58.90;;;;;;5086560;28;20062;-35
2022/05/09 13:04:47;;;;;;;0.50;0.20;;;23.30;58.90;;;;;;5085230;28;20488;-35
2022/05/09 13:07:13;;;;;;;0.80;0.30;;;23.40;59.00;;;;;;5088227;28;20032;-34
2022/05/09 13:09:53;;;;;;;0.20;0.17;;;23.40;59.00;;;;;;5090458;28;20043;-35
2022/05/09 13:12:36;;;;;;;0.43;0.22;;;23.40;58.90;;;;;;5088669;28;20045;-34
2022/05/09 13:15:06;;;;;;;0.57;0.20;;;23.40;58.80;;;;;;5082756;28;20123;-34
2022/05/09 13:17:36;;;;;;;0.77;0.30;;;23.30;58.60;;;;;;5091992;28;20052;-35
2022/05/09 13:20:04;;;;;;;0.40;0.28;;;23.40;58.40;;;;;;5093746;28;20033;-35
2022/05/09 13:22:42;;;;;;;1.17;0.30;;;23.30;58.40;;;;;;5086613;28;20033;-35